createdAt,value
2019-01-25T00:00:59.532Z,42.05
2019-01-25T00:03:39.092Z,41.30
2019-01-25T00:06:15.021Z,39.42
2019-01-25T00:08:49.692Z,42.62
2019-01-25T00:11:24.595Z,43.00
2019-01-25T00:13:56.469Z,42.58
2019-01-25T00:16:30.066Z,42.45
2019-01-25T00:19:01.930Z,42.58
2019-01-25T00:21:33.815Z,42.65
2019-01-25T00:24:06.540Z,43.15
2019-01-25T00:26:38.381Z,42.98
2019-01-25T00:29:10.371Z,41.45
2019-01-25T00:31:46.605Z,41.58
2019-01-25T00:34:18.449Z,41.88
2019-01-25T00:36:50.319Z,43.02
2019-01-25T00:39:27.532Z,42.08
2019-01-25T00:42:03.461Z,42.60
2019-01-25T00:44:37.064Z,43.15
2019-01-25T00:47:10.077Z,43.78
2019-01-25T00:49:49.176Z,43.35
2019-01-25T00:52:20.997Z,41.85
2019-01-25T00:54:57.179Z,42.10
2019-01-25T00:57:33.702Z,42.43
2019-01-25T01:00:21.395Z,41.95
2019-01-25T01:02:53.229Z,43.83
2019-01-25T01:05:25.617Z,42.73
2019-01-25T01:07:57.485Z,44.23
2019-01-25T01:10:29.358Z,43.70
2019-01-25T01:13:06.487Z,43.35
2019-01-25T01:15:37.431Z,42.98
2019-01-25T01:18:09.253Z,42.35
2019-01-25T01:20:42.772Z,43.65
2019-01-25T01:23:14.633Z,42.45
2019-01-25T01:25:46.532Z,41.70
2019-01-25T01:28:18.397Z,43.08
2019-01-25T01:30:51.421Z,43.00
2019-01-25T01:33:25.299Z,43.55
2019-01-25T01:36:04.606Z,42.78
2019-01-25T01:38:41.659Z,41.73
2019-01-25T01:41:13.536Z,43.05
2019-01-25T01:43:47.496Z,42.05
2019-01-25T01:46:23.879Z,41.23
2019-01-25T01:48:58.308Z,41.45
2019-01-25T01:51:30.182Z,42.48
2019-01-25T01:54:03.664Z,42.58
2019-01-25T01:56:37.288Z,41.35
2019-01-25T01:59:11.190Z,42.50
2019-01-25T02:01:45.791Z,38.90
2019-01-25T02:04:17.663Z,34.83
2019-01-25T02:06:49.659Z,37.90
2019-01-25T02:09:21.518Z,40.05
2019-01-25T02:11:53.381Z,38.70
2019-01-25T02:14:27.529Z,37.60
2019-01-25T02:16:59.562Z,35.70
2019-01-25T02:19:33.195Z,35.13
2019-01-25T02:22:07.136Z,35.30
2019-01-25T02:24:41.930Z,35.05
2019-01-25T02:27:22.626Z,35.03
2019-01-25T02:29:54.459Z,33.45
2019-01-25T02:32:29.310Z,34.58
2019-01-25T02:35:01.128Z,31.57
2019-01-25T02:37:32.971Z,34.45
2019-01-25T02:40:07.492Z,31.42
2019-01-25T02:42:43.249Z,31.80
2019-01-25T02:45:15.777Z,32.00
2019-01-25T02:47:47.706Z,32.50
2019-01-25T02:50:20.207Z,33.25
2019-01-25T02:52:53.881Z,33.45
2019-01-25T02:55:25.717Z,34.63
2019-01-25T02:57:57.590Z,33.50
2019-01-25T03:00:33.640Z,33.13
2019-01-25T03:03:05.739Z,36.33
2019-01-25T03:05:37.585Z,37.53
2019-01-25T03:08:09.480Z,82.15
2019-01-25T03:10:47.209Z,42.23
2019-01-25T03:13:18.481Z,37.35
2019-01-25T03:15:50.317Z,35.58
2019-01-25T03:18:22.204Z,34.73
2019-01-25T03:20:54.064Z,31.97
2019-01-25T03:23:27.744Z,34.27
2019-01-25T03:25:59.666Z,33.88
2019-01-25T03:28:31.525Z,34.78
2019-01-25T03:31:03.435Z,31.80
2019-01-25T03:33:35.273Z,33.02
2019-01-25T03:36:07.157Z,33.78
2019-01-25T03:38:40.733Z,32.28
2019-01-25T03:41:12.583Z,31.80
2019-01-25T03:43:44.414Z,32.17
2019-01-25T03:46:17.480Z,33.20
2019-01-25T03:48:50.929Z,32.65
2019-01-25T03:51:22.777Z,33.23
2019-01-25T03:53:54.613Z,33.53
2019-01-25T03:56:26.442Z,32.75
2019-01-25T03:58:58.371Z,31.27
2019-01-25T04:01:30.229Z,33.80
2019-01-25T04:04:02.088Z,33.90
2019-01-25T04:06:33.958Z,34.88
2019-01-25T04:09:10.518Z,33.95
2019-01-25T04:11:42.376Z,36.53
2019-01-25T04:14:14.249Z,34.63
2019-01-25T04:16:46.115Z,34.90
2019-01-25T04:19:17.961Z,34.92
2019-01-25T04:21:49.819Z,35.10
2019-01-25T04:24:22.048Z,35.52
2019-01-25T04:26:53.883Z,33.50
2019-01-25T04:29:25.831Z,33.20
2019-01-25T04:31:57.663Z,32.93
2019-01-25T04:34:29.515Z,29.72
2019-01-25T04:37:01.389Z,31.75
2019-01-25T04:39:33.228Z,31.90
2019-01-25T04:42:05.095Z,33.30
2019-01-25T04:44:36.953Z,38.98
2019-01-25T04:47:08.818Z,34.95
2019-01-25T04:49:40.704Z,32.80
2019-01-25T04:52:15.937Z,33.95
2019-01-25T04:54:47.824Z,32.10
2019-01-25T04:57:19.709Z,33.38
2019-01-25T04:59:51.512Z,31.85
2019-01-25T05:02:23.360Z,29.90
2019-01-25T05:04:55.199Z,33.18
2019-01-25T05:07:27.040Z,30.52
2019-01-25T05:09:58.899Z,31.70
2019-01-25T05:12:30.750Z,30.68
2019-01-25T05:15:03.984Z,31.80
2019-01-25T05:17:36.920Z,30.48
2019-01-25T05:20:09.216Z,31.23
2019-01-25T05:22:41.060Z,30.08
2019-01-25T05:25:12.924Z,28.45
2019-01-25T05:27:46.803Z,29.15
2019-01-25T05:30:27.022Z,29.60
2019-01-25T05:33:02.483Z,29.45
2019-01-25T05:35:39.500Z,30.08
2019-01-25T05:38:16.936Z,29.23
2019-01-25T05:40:51.673Z,28.67
2019-01-25T05:43:29.214Z,31.85
2019-01-25T05:46:07.766Z,29.00
2019-01-25T05:48:48.331Z,29.92
2019-01-25T05:51:25.409Z,30.43
2019-01-25T05:53:57.270Z,32.05
2019-01-25T05:56:29.132Z,30.25
2019-01-25T05:59:02.440Z,28.27
2019-01-25T06:01:42.401Z,28.38
2019-01-25T06:04:14.476Z,29.80
2019-01-25T06:06:46.298Z,30.40
2019-01-25T06:09:25.240Z,27.17
2019-01-25T06:11:57.059Z,27.62
2019-01-25T06:14:28.948Z,30.65
2019-01-25T06:17:02.220Z,32.38
2019-01-25T06:19:43.110Z,29.12
2019-01-25T06:22:17.682Z,29.25
2019-01-25T06:24:51.481Z,30.00
2019-01-25T06:27:25.050Z,29.65
2019-01-25T06:29:59.360Z,30.02
2019-01-25T06:32:31.902Z,30.62
2019-01-25T06:35:03.735Z,29.82
2019-01-25T06:37:35.595Z,29.25
2019-01-25T06:40:12.331Z,28.50
2019-01-25T06:42:44.197Z,30.48
2019-01-25T06:45:18.145Z,31.65
2019-01-25T06:47:50.889Z,30.05
2019-01-25T06:50:22.722Z,31.20
2019-01-25T06:52:57.713Z,32.42
2019-01-25T06:55:32.505Z,33.35
2019-01-25T06:58:26.255Z,32.08
2019-01-25T07:01:25.986Z,32.63
2019-01-25T07:03:57.848Z,29.48
2019-01-25T07:06:32.547Z,28.67
2019-01-25T07:09:07.776Z,31.90
2019-01-25T07:11:42.321Z,28.75
2019-01-25T07:14:18.988Z,30.97
2019-01-25T07:16:50.864Z,31.60
2019-01-25T07:19:24.207Z,33.10
2019-01-25T07:21:56.055Z,30.60
2019-01-25T07:24:38.556Z,30.23
2019-01-25T07:27:11.765Z,30.75
2019-01-25T07:29:49.668Z,29.15
2019-01-25T07:32:21.500Z,31.42
2019-01-25T07:34:53.385Z,30.82
2019-01-25T07:37:25.267Z,30.60
2019-01-25T07:39:57.260Z,29.32
2019-01-25T07:42:30.468Z,30.95
2019-01-25T07:45:05.244Z,32.40
2019-01-25T07:47:37.195Z,33.13
2019-01-25T07:50:12.238Z,32.25
2019-01-25T07:52:51.229Z,30.08
2019-01-25T07:55:25.880Z,32.50
2019-01-25T07:57:58.923Z,32.30
2019-01-25T08:00:30.833Z,33.55
2019-01-25T08:03:02.679Z,34.85
2019-01-25T08:05:35.071Z,35.35
2019-01-25T08:08:07.027Z,33.55
2019-01-25T08:10:38.920Z,35.63
2019-01-25T08:13:17.471Z,38.78
2019-01-25T08:15:51.445Z,35.85
2019-01-25T08:18:30.551Z,36.35
2019-01-25T08:21:02.548Z,34.40
2019-01-25T08:23:34.445Z,33.75
2019-01-25T08:26:10.408Z,35.03
2019-01-25T08:28:42.355Z,34.18
2019-01-25T08:31:18.835Z,35.48
2019-01-25T08:33:50.756Z,33.80
2019-01-25T08:36:26.436Z,38.15
2019-01-25T08:38:58.282Z,33.02
2019-01-25T08:41:32.350Z,35.05
2019-01-25T08:44:04.332Z,35.25
2019-01-25T08:46:38.760Z,35.75
2019-01-25T08:49:10.827Z,36.83
2019-01-25T08:51:42.651Z,39.42
2019-01-25T08:54:16.354Z,37.88
2019-01-25T08:56:49.256Z,36.75
2019-01-25T08:59:21.173Z,40.10
2019-01-25T09:01:52.958Z,37.60
2019-01-25T09:04:24.818Z,39.13
2019-01-25T09:06:57.939Z,38.25
2019-01-25T09:09:30.991Z,39.83
2019-01-25T09:12:03.935Z,38.58
2019-01-25T09:14:35.782Z,36.38
2019-01-25T09:17:13.958Z,39.85
2019-01-25T09:19:52.671Z,37.45
2019-01-25T09:22:28.599Z,35.83
2019-01-25T09:25:00.516Z,36.20
2019-01-25T09:27:32.330Z,35.20
2019-01-25T09:30:04.251Z,35.48
2019-01-25T09:32:36.107Z,34.83
2019-01-25T09:35:08.763Z,33.35
2019-01-25T09:37:40.990Z,33.65
2019-01-25T09:40:21.531Z,32.40
2019-01-25T09:42:54.046Z,33.13
2019-01-25T09:45:25.905Z,30.82
2019-01-25T09:47:57.773Z,31.82
2019-01-25T09:50:33.340Z,32.10
2019-01-25T09:53:05.367Z,30.95
2019-01-25T09:55:37.194Z,32.03
2019-01-25T09:58:13.013Z,31.40
2019-01-25T10:01:03.152Z,33.40
2019-01-25T10:03:35.005Z,31.60
2019-01-25T10:06:06.827Z,32.15
2019-01-25T10:08:40.443Z,30.40
2019-01-25T10:11:12.264Z,29.42
2019-01-25T10:13:44.092Z,31.85
2019-01-25T10:16:18.863Z,30.10
2019-01-25T10:18:50.689Z,31.07
2019-01-25T10:21:22.518Z,28.35
2019-01-25T10:23:54.375Z,30.90
2019-01-25T10:26:26.202Z,30.60
2019-01-25T10:28:58.032Z,30.25
2019-01-25T10:31:29.869Z,29.63
2019-01-25T10:34:02.797Z,30.52
2019-01-25T10:36:34.708Z,28.38
2019-01-25T10:39:09.405Z,28.55
2019-01-25T10:41:41.270Z,29.05
2019-01-25T10:44:13.118Z,27.98
2019-01-25T10:46:45.019Z,28.47
2019-01-25T10:49:18.109Z,29.65
2019-01-25T10:51:49.958Z,29.98
2019-01-25T10:54:21.775Z,27.85
2019-01-25T10:56:53.854Z,28.83
2019-01-25T10:59:25.692Z,30.65
2019-01-25T11:01:57.566Z,28.47
2019-01-25T11:04:29.400Z,29.05
2019-01-25T11:07:01.239Z,28.55
2019-01-25T11:09:37.915Z,27.82
2019-01-25T11:12:06.707Z,29.87
2019-01-25T11:14:38.577Z,30.05
2019-01-25T11:17:10.456Z,28.77
2019-01-25T11:19:42.346Z,29.25
2019-01-25T11:22:14.160Z,29.27
2019-01-25T11:24:46.017Z,28.32
2019-01-25T11:27:17.861Z,29.10
2019-01-25T11:29:51.791Z,29.42
2019-01-25T11:32:23.666Z,28.92
2019-01-25T11:34:55.707Z,30.08
2019-01-25T11:37:28.639Z,29.20
2019-01-25T11:40:01.489Z,28.60
2019-01-25T11:42:33.419Z,29.70
2019-01-25T11:45:05.792Z,31.25
2019-01-25T11:47:37.637Z,29.40
2019-01-25T11:50:12.441Z,28.30
2019-01-25T11:52:44.311Z,30.40
2019-01-25T11:55:16.669Z,27.55
2019-01-25T11:57:48.605Z,28.50
2019-01-25T12:00:23.598Z,30.72
2019-01-25T12:02:55.509Z,28.98
2019-01-25T12:05:27.755Z,28.90
2019-01-25T12:07:59.594Z,29.12
2019-01-25T12:10:32.974Z,29.42
2019-01-25T12:13:05.825Z,28.47
2019-01-25T12:15:37.640Z,30.60
2019-01-25T12:18:09.488Z,30.43
2019-01-25T12:20:41.368Z,29.50
2019-01-25T12:23:13.217Z,28.20
2019-01-25T12:25:45.094Z,29.87
2019-01-25T12:28:16.925Z,30.08
2019-01-25T12:30:48.816Z,30.00
2019-01-25T12:33:22.067Z,30.80
2019-01-25T12:35:56.939Z,32.35
2019-01-25T12:38:29.983Z,30.50
2019-01-25T12:41:03.895Z,30.05
2019-01-25T12:43:35.735Z,30.80
2019-01-25T12:46:07.600Z,31.40
2019-01-25T12:48:39.420Z,29.85
2019-01-25T12:51:49.413Z,30.12
2019-01-25T12:54:21.253Z,30.48
2019-01-25T12:56:56.173Z,29.52
2019-01-25T12:59:28.103Z,31.68
2019-01-25T13:02:01.725Z,30.20
2019-01-25T13:04:33.554Z,30.32
2019-01-25T13:07:05.547Z,28.75
2019-01-25T13:09:37.485Z,29.55
2019-01-25T13:12:09.349Z,30.55
2019-01-25T13:14:41.171Z,30.77
2019-01-25T13:17:13.044Z,30.88
2019-01-25T13:19:47.284Z,30.23
2019-01-25T13:22:19.118Z,30.65
2019-01-25T13:24:50.961Z,30.43
2019-01-25T13:27:25.294Z,31.00
2019-01-25T13:30:01.644Z,32.13
2019-01-25T13:32:38.207Z,32.38
2019-01-25T13:35:10.144Z,29.07
2019-01-25T13:37:42.077Z,29.65
2019-01-25T13:40:16.944Z,29.15
2019-01-25T13:42:49.098Z,28.77
2019-01-25T13:45:21.621Z,26.35
2019-01-25T13:47:53.734Z,28.73
2019-01-25T13:50:27.590Z,30.50
2019-01-25T13:52:59.853Z,32.08
2019-01-25T13:55:36.878Z,28.67
2019-01-25T13:58:10.334Z,29.82
2019-01-25T14:00:42.205Z,30.57
2019-01-25T14:03:14.043Z,27.58
2019-01-25T14:05:50.861Z,26.12
2019-01-25T14:08:22.619Z,26.85
2019-01-25T14:10:57.619Z,27.85
2019-01-25T14:13:34.102Z,27.60
2019-01-25T14:16:04.076Z,27.22
2019-01-25T14:18:35.972Z,26.27
2019-01-25T14:21:07.854Z,29.20
2019-01-25T14:23:42.880Z,29.65
2019-01-25T14:26:17.634Z,26.60
2019-01-25T14:28:49.562Z,28.23
2019-01-25T14:31:25.036Z,29.37
2019-01-25T14:33:56.892Z,30.92
2019-01-25T14:36:28.756Z,29.35
2019-01-25T14:39:08.002Z,29.65
2019-01-25T14:41:42.913Z,28.23
2019-01-25T14:44:18.559Z,28.70
2019-01-25T14:46:50.543Z,34.00
2019-01-25T14:49:22.387Z,31.40
2019-01-25T14:51:55.378Z,30.27
2019-01-25T14:54:29.900Z,28.60
2019-01-25T14:57:01.736Z,28.57
2019-01-25T14:59:34.770Z,30.80
2019-01-25T15:02:06.661Z,27.93
2019-01-25T15:04:40.046Z,32.30
2019-01-25T15:07:15.503Z,28.38
2019-01-25T15:09:47.395Z,26.80
2019-01-25T15:12:21.022Z,27.37
2019-01-25T15:14:52.947Z,27.05
2019-01-25T15:17:26.878Z,25.95
2019-01-25T15:20:01.859Z,31.40
2019-01-25T15:22:37.662Z,29.32
2019-01-25T15:25:09.630Z,27.00
2019-01-25T15:27:41.531Z,23.80
2019-01-25T15:30:23.317Z,24.65
2019-01-25T15:32:55.369Z,25.25
2019-01-25T15:35:29.689Z,24.60
2019-01-25T15:38:03.442Z,23.30
2019-01-25T15:40:35.487Z,22.67
2019-01-25T15:43:10.226Z,22.60
2019-01-25T15:45:46.531Z,24.07
2019-01-25T15:48:19.400Z,26.55
2019-01-25T15:50:51.212Z,29.42
2019-01-25T15:53:23.033Z,28.62
2019-01-25T15:55:57.964Z,25.30
2019-01-25T15:58:29.816Z,29.75
2019-01-25T16:01:03.915Z,33.95
2019-01-25T16:03:35.822Z,27.22
2019-01-25T16:06:10.828Z,25.60
2019-01-25T16:08:50.407Z,24.80
2019-01-25T16:11:33.813Z,22.93
2019-01-25T16:14:04.523Z,24.12
2019-01-25T16:16:41.318Z,27.27
2019-01-25T16:19:22.746Z,29.02
2019-01-25T16:21:58.608Z,25.02
2019-01-25T16:24:32.579Z,24.43
2019-01-25T16:27:10.310Z,23.80
2019-01-25T16:29:42.182Z,24.85
2019-01-25T16:32:15.245Z,22.95
2019-01-25T16:34:58.163Z,21.93
2019-01-25T16:37:30.074Z,20.10
2019-01-25T16:40:02.014Z,20.12
2019-01-25T16:42:45.915Z,19.57
2019-01-25T16:45:25.969Z,18.30
2019-01-25T16:47:57.882Z,18.50
2019-01-25T16:50:31.089Z,18.55
2019-01-25T16:53:07.808Z,18.77
2019-01-25T16:55:43.630Z,18.35
2019-01-25T16:58:15.584Z,18.37
2019-01-25T17:00:54.008Z,15.98
2019-01-25T17:03:25.891Z,17.12
2019-01-25T17:05:57.728Z,17.73
2019-01-25T17:08:32.374Z,17.65
2019-01-25T17:11:09.105Z,16.23
2019-01-25T17:13:40.926Z,18.10
2019-01-25T17:16:13.964Z,19.25
2019-01-25T17:18:45.947Z,18.55
2019-01-25T17:21:17.841Z,22.27
2019-01-25T17:23:57.200Z,18.55
2019-01-25T17:26:31.912Z,15.68
2019-01-25T17:29:03.982Z,17.23
2019-01-25T17:31:35.884Z,17.12
2019-01-25T17:34:07.746Z,16.90
2019-01-25T17:36:39.851Z,17.20
2019-01-25T17:39:17.459Z,17.42
2019-01-25T17:41:49.365Z,16.10
2019-01-25T17:44:21.177Z,18.45
2019-01-25T17:46:56.150Z,18.00
2019-01-25T17:49:27.985Z,17.42
2019-01-25T17:51:59.898Z,17.52
2019-01-25T17:54:31.711Z,18.12
2019-01-25T17:57:03.850Z,18.12
2019-01-25T17:59:35.681Z,21.97
2019-01-25T18:02:09.098Z,17.23
2019-01-25T18:04:41.041Z,18.02
2019-01-25T18:07:12.943Z,17.12
2019-01-25T18:09:47.413Z,16.85
2019-01-25T18:12:19.414Z,15.90
2019-01-25T18:14:51.254Z,17.10
2019-01-25T18:17:23.108Z,17.95
2019-01-25T18:19:54.996Z,18.55
2019-01-25T18:22:29.381Z,18.73
2019-01-25T18:25:01.393Z,18.80
2019-01-25T18:27:33.348Z,16.87
2019-01-25T18:30:12.870Z,18.32
2019-01-25T18:32:46.912Z,18.00
2019-01-25T18:35:18.775Z,19.45
2019-01-25T18:37:50.753Z,19.27
2019-01-25T18:40:23.739Z,18.05
2019-01-25T18:42:55.700Z,16.57
2019-01-25T18:45:28.689Z,18.57
2019-01-25T18:48:00.515Z,17.48
2019-01-25T18:50:32.422Z,17.77
2019-01-25T18:53:04.375Z,16.57
2019-01-25T18:55:36.562Z,17.25
2019-01-25T18:58:08.409Z,16.50
2019-01-25T19:00:40.306Z,16.15
2019-01-25T19:03:12.173Z,17.27
2019-01-25T19:05:44.158Z,17.77
2019-01-25T19:08:15.990Z,15.65
2019-01-25T19:10:47.963Z,16.05
2019-01-25T19:13:19.854Z,16.73
2019-01-25T19:15:51.723Z,16.90
2019-01-25T19:18:23.554Z,15.50
2019-01-25T19:20:55.418Z,17.70
2019-01-25T19:23:27.298Z,16.85
2019-01-25T19:25:59.190Z,16.57
2019-01-25T19:28:31.063Z,14.87
2019-01-25T19:31:02.927Z,15.23
2019-01-25T19:33:34.902Z,14.47
2019-01-25T19:36:07.092Z,14.23
2019-01-25T19:38:38.948Z,13.20
2019-01-25T19:41:10.810Z,11.88
2019-01-25T19:43:42.678Z,13.53
2019-01-25T19:46:14.617Z,12.35
2019-01-25T19:48:46.586Z,12.50
2019-01-25T19:51:18.439Z,11.95
2019-01-25T19:53:51.574Z,11.90
2019-01-25T19:56:29.241Z,11.55
2019-01-25T19:59:03.223Z,13.72
2019-01-25T20:01:37.407Z,10.35
2019-01-25T20:04:10.894Z,10.20
2019-01-25T20:06:43.002Z,10.10
2019-01-25T20:09:16.524Z,9.73
2019-01-25T20:11:56.610Z,10.25
2019-01-25T20:14:30.668Z,10.95
2019-01-25T20:17:02.510Z,11.10
2019-01-25T20:19:36.013Z,11.55
2019-01-25T20:22:10.590Z,10.85
2019-01-25T20:24:44.922Z,9.80
2019-01-25T20:27:21.657Z,11.12
2019-01-25T20:29:53.168Z,10.03
2019-01-25T20:32:25.112Z,10.30
2019-01-25T20:34:59.139Z,10.30
2019-01-25T20:37:34.801Z,10.85
2019-01-25T20:40:10.784Z,10.08
2019-01-25T20:42:44.096Z,10.05
2019-01-25T20:45:27.908Z,9.70
2019-01-25T20:48:02.447Z,10.05
2019-01-25T20:50:41.974Z,9.30
2019-01-25T20:53:17.728Z,9.28
2019-01-25T20:55:49.618Z,9.68
2019-01-25T20:58:23.754Z,9.35
2019-01-25T21:00:56.094Z,9.28
2019-01-25T21:03:28.131Z,9.30
2019-01-25T21:06:02.415Z,10.40
2019-01-25T21:08:35.278Z,9.48
2019-01-25T21:11:07.396Z,8.98
2019-01-25T21:13:43.379Z,9.38
2019-01-25T21:16:19.327Z,10.15
2019-01-25T21:18:51.184Z,9.15
2019-01-25T21:21:25.453Z,9.25
2019-01-25T21:24:00.300Z,8.73
2019-01-25T21:26:32.129Z,9.43
2019-01-25T21:29:06.923Z,8.85
2019-01-25T21:31:41.589Z,8.98
2019-01-25T21:34:13.470Z,8.75
2019-01-25T21:36:49.488Z,7.83
2019-01-25T21:39:24.900Z,8.55
2019-01-25T21:41:56.710Z,8.25
2019-01-25T21:44:40.270Z,7.72
2019-01-25T21:47:15.505Z,8.35
2019-01-25T21:49:49.135Z,7.35
2019-01-25T21:52:23.008Z,8.60
2019-01-25T21:54:54.975Z,7.45
2019-01-25T21:57:26.825Z,6.92
2019-01-25T22:00:08.788Z,7.33
2019-01-25T22:02:42.494Z,7.72
2019-01-25T22:05:14.348Z,7.83
2019-01-25T22:07:46.286Z,7.20
2019-01-25T22:10:29.727Z,7.50
2019-01-25T22:13:04.465Z,7.95
2019-01-25T22:15:40.730Z,7.65
2019-01-25T22:18:12.585Z,8.20
2019-01-25T22:20:45.266Z,8.35
2019-01-25T22:23:23.687Z,7.55
2019-01-25T22:25:55.537Z,8.03
2019-01-25T22:28:27.420Z,7.12
2019-01-25T22:31:04.758Z,8.65
2019-01-25T22:33:39.686Z,7.75
2019-01-25T22:36:12.943Z,7.85
2019-01-25T22:38:49.288Z,7.97
2019-01-25T22:41:20.830Z,8.35
2019-01-25T22:43:58.584Z,8.55
2019-01-25T22:46:30.440Z,7.65
2019-01-25T22:49:02.275Z,8.38
2019-01-25T22:51:38.547Z,8.03
2019-01-25T22:54:12.923Z,7.65
2019-01-25T22:56:56.177Z,8.48
2019-01-25T22:59:30.708Z,8.43
2019-01-25T23:02:04.180Z,8.68
2019-01-25T23:05:29.661Z,8.15
2019-01-25T23:08:04.374Z,9.30
2019-01-25T23:10:40.160Z,8.63
2019-01-25T23:13:14.483Z,9.55
2019-01-25T23:15:49.409Z,8.55
2019-01-25T23:18:21.273Z,9.28
2019-01-25T23:20:53.126Z,8.20
2019-01-25T23:23:27.029Z,7.90
2019-01-25T23:25:58.839Z,9.38
2019-01-25T23:28:39.500Z,8.95
2019-01-25T23:31:11.366Z,8.88
2019-01-25T23:33:43.201Z,8.48
2019-01-25T23:36:15.030Z,8.55
2019-01-25T23:38:46.876Z,8.78
2019-01-25T23:41:20.801Z,9.05
2019-01-25T23:43:53.960Z,9.40
2019-01-25T23:46:25.870Z,8.55
2019-01-25T23:48:57.693Z,8.80
2019-01-25T23:51:30.752Z,8.60
2019-01-25T23:54:06.870Z,7.55
2019-01-25T23:56:44.114Z,8.10
2019-01-25T23:59:17.030Z,8.78
